Archival Weather

Prince Abdulmajeed Bin Abdula

Prince Abdulmajeed Bin Abdula, Saudi Arabia (OEAO)

Report from: Monday, May 23, 2022 3:00 AM UTC
Current time: Tuesday, August 16, 2022 7:09 AM UTC

Current weather
Weather history
Weather forecast

Temperature28.0°C (82.4°F)
Heat index26.6°C (79.9°F)
Dew point-3.0°C (26.6°F)
Winds Calm
Clouds Sky clear
Altimeter29.83 in.Hg (1010 mB)
Relative humidity13 %
Density altitude1,687 ft. (514 m)
Remarks Ceiling and visibility OK
No significant changes expected in the next two hours
Flight conditions Visual Meteorological Conditions
Raw dataOEAO 230300Z 00000KT CAVOK 28/M03 Q1010 NOSIG
An error has occurred. This application may no longer respond until reloaded. Reload 🗙